createdAt,value
2023-02-01T00:01:38.881Z,3.28
2023-02-01T00:04:08.435Z,3.27
2023-02-01T00:06:36.630Z,3.22
2023-02-01T00:09:05.064Z,3.27
2023-02-01T00:11:33.235Z,3.25
2023-02-01T00:14:01.400Z,3.27
2023-02-01T00:16:31.850Z,3.31
2023-02-01T00:19:02.569Z,3.30
2023-02-01T00:21:34.098Z,3.30
2023-02-01T00:24:02.355Z,3.33
2023-02-01T00:26:35.502Z,3.34
2023-02-01T00:29:06.136Z,3.43
2023-02-01T00:31:34.467Z,3.47
2023-02-01T00:34:02.660Z,3.50
2023-02-01T00:36:32.563Z,3.51
2023-02-01T00:39:01.013Z,3.51
2023-02-01T00:41:29.521Z,3.53
2023-02-01T00:43:57.910Z,3.64
2023-02-01T00:46:26.842Z,3.63
2023-02-01T00:48:55.756Z,3.67
2023-02-01T00:51:26.327Z,3.70
2023-02-01T00:53:56.670Z,3.71
2023-02-01T00:56:25.286Z,3.73
2023-02-01T00:58:53.720Z,3.77
2023-02-01T01:01:23.782Z,3.75
2023-02-01T01:03:55.119Z,3.73
2023-02-01T01:06:25.562Z,3.71
2023-02-01T01:08:55.909Z,3.74
2023-02-01T01:11:26.073Z,3.73
2023-02-01T01:13:56.205Z,3.75
2023-02-01T01:16:26.145Z,3.81
2023-02-01T01:18:55.004Z,3.92
2023-02-01T01:21:23.485Z,3.99
2023-02-01T01:23:52.083Z,4.12
2023-02-01T01:26:25.015Z,4.09
2023-02-01T01:28:53.971Z,4.07
2023-02-01T01:31:23.154Z,4.09
2023-02-01T01:33:52.803Z,4.06
2023-02-01T01:36:21.715Z,4.05
2023-02-01T01:38:50.398Z,4.05
2023-02-01T01:41:21.565Z,4.09
2023-02-01T01:43:57.393Z,4.01
2023-02-01T01:46:27.606Z,3.88
2023-02-01T01:49:03.612Z,4.15
2023-02-01T01:51:34.416Z,4.19
2023-02-01T01:54:08.548Z,4.14
2023-02-01T01:56:38.055Z,3.97
2023-02-01T01:59:09.016Z,3.84
2023-02-01T02:01:37.629Z,3.79
2023-02-01T02:04:07.210Z,3.72
2023-02-01T02:06:49.112Z,3.61
2023-02-01T02:09:18.611Z,3.60
2023-02-01T02:11:46.987Z,3.55
2023-02-01T02:14:19.769Z,3.53
2023-02-01T02:17:01.464Z,3.55
2023-02-01T02:20:02.140Z,3.55
2023-02-01T02:22:48.777Z,3.61
2023-02-01T02:25:43.540Z,3.65
2023-02-01T02:28:32.052Z,3.64
2023-02-01T02:31:26.605Z,3.65
2023-02-01T02:34:06.182Z,3.67
2023-02-01T02:36:44.132Z,3.72
2023-02-01T02:39:23.322Z,3.74
2023-02-01T02:42:18.334Z,3.75
2023-02-01T02:45:08.873Z,3.77
2023-02-01T02:47:46.622Z,3.82
2023-02-01T02:50:43.399Z,3.83
2023-02-01T02:53:33.225Z,3.86
2023-02-01T02:56:20.929Z,3.91
2023-02-01T02:59:08.141Z,3.90
2023-02-01T03:01:53.966Z,4.04
2023-02-01T03:04:24.912Z,4.07
2023-02-01T03:06:55.422Z,4.07
2023-02-01T03:09:28.611Z,4.13
2023-02-01T03:12:21.865Z,4.19
2023-02-01T03:14:55.059Z,4.21
2023-02-01T03:17:29.172Z,4.25
2023-02-01T03:20:02.932Z,4.26
2023-02-01T03:22:35.553Z,4.29
2023-02-01T03:25:08.062Z,4.31
2023-02-01T03:27:40.126Z,4.32
2023-02-01T03:30:12.040Z,4.33
2023-02-01T03:35:47.184Z,4.29
2023-02-01T03:38:22.355Z,4.27
2023-02-01T03:40:55.860Z,4.31
2023-02-01T03:43:27.696Z,4.28
2023-02-01T03:46:04.376Z,4.31
2023-02-01T03:48:33.037Z,4.34
2023-02-01T03:51:07.404Z,4.32
2023-02-01T03:53:38.710Z,4.27
2023-02-01T03:56:08.780Z,4.28
2023-02-01T03:58:38.113Z,4.22
2023-02-01T04:01:06.547Z,4.23
2023-02-01T04:03:35.234Z,4.21
2023-02-01T04:06:05.201Z,4.18
2023-02-01T04:08:33.579Z,4.18
2023-02-01T04:11:05.022Z,4.24
2023-02-01T04:13:33.426Z,4.19
2023-02-01T04:16:01.949Z,4.19
2023-02-01T04:18:30.467Z,4.21
2023-02-01T04:20:58.923Z,4.19
2023-02-01T04:23:28.908Z,4.15
2023-02-01T04:26:02.196Z,4.19
2023-02-01T04:28:31.174Z,4.21
2023-02-01T04:31:00.349Z,4.18
2023-02-01T04:33:28.930Z,4.22
2023-02-01T04:35:57.371Z,4.21
2023-02-01T04:38:25.873Z,4.20
2023-02-01T04:40:55.724Z,4.23
2023-02-01T04:43:24.200Z,4.25
2023-02-01T04:45:53.370Z,4.20
2023-02-01T04:48:25.098Z,4.19
2023-02-01T04:50:53.716Z,4.23
2023-02-01T04:53:22.193Z,4.25
2023-02-01T04:55:51.417Z,4.28
2023-02-01T04:58:21.425Z,4.31
2023-02-01T05:00:50.825Z,4.36
2023-02-01T05:03:19.265Z,4.36
2023-02-01T05:05:49.594Z,4.39
2023-02-01T05:08:18.274Z,4.40
2023-02-01T05:10:47.868Z,4.44
2023-02-01T05:13:33.464Z,4.43
2023-02-01T05:16:03.516Z,4.47
2023-02-01T05:18:32.243Z,4.54
2023-02-01T05:21:00.822Z,4.58
2023-02-01T05:23:29.309Z,4.60
2023-02-01T05:26:02.164Z,4.62
2023-02-01T05:28:30.836Z,4.56
2023-02-01T05:30:59.329Z,4.62
2023-02-01T05:33:29.430Z,4.69
2023-02-01T05:35:57.891Z,4.67
2023-02-01T05:38:26.379Z,4.69
2023-02-01T05:40:54.859Z,4.68
2023-02-01T05:43:23.275Z,4.73
2023-02-01T05:45:51.915Z,4.75
2023-02-01T05:48:20.612Z,4.77
2023-02-01T05:50:50.537Z,4.69
2023-02-01T05:53:19.167Z,4.70
2023-02-01T05:55:47.883Z,4.71
2023-02-01T05:58:16.815Z,4.75
2023-02-01T06:00:45.409Z,4.73
2023-02-01T06:03:13.822Z,4.68
2023-02-01T06:05:42.377Z,4.70
2023-02-01T06:08:12.235Z,4.71
2023-02-01T06:10:40.721Z,4.74
2023-02-01T06:13:09.747Z,4.75
2023-02-01T06:15:39.041Z,4.79
2023-02-01T06:18:07.703Z,4.81
2023-02-01T06:20:36.253Z,4.82
2023-02-01T06:23:06.325Z,4.82
2023-02-01T06:25:36.204Z,4.89
2023-02-01T06:28:07.161Z,4.88
2023-02-01T06:30:35.867Z,4.87
2023-02-01T06:33:04.411Z,4.94
2023-02-01T06:35:32.815Z,4.91
2023-02-01T06:38:01.300Z,4.91
2023-02-01T06:40:29.730Z,4.94
2023-02-01T06:42:59.809Z,4.94
2023-02-01T06:45:28.276Z,4.99
2023-02-01T06:47:56.707Z,5.02
2023-02-01T06:50:25.332Z,5.02
2023-02-01T06:52:53.942Z,5.02
2023-02-01T06:55:25.296Z,5.02
2023-02-01T06:57:56.676Z,5.03
2023-02-01T07:00:26.918Z,5.04
2023-02-01T07:02:55.372Z,5.05
2023-02-01T07:05:24.160Z,5.07
2023-02-01T07:07:52.588Z,5.11
2023-02-01T07:10:21.553Z,5.10
2023-02-01T07:12:50.221Z,5.13
2023-02-01T07:15:18.712Z,5.04
2023-02-01T07:17:50.294Z,5.13
2023-02-01T07:20:19.182Z,5.12
2023-02-01T07:22:47.746Z,5.13
2023-02-01T07:25:16.280Z,5.18
2023-02-01T07:27:44.751Z,5.12
2023-02-01T07:30:15.158Z,5.22
2023-02-01T07:32:43.679Z,5.22
2023-02-01T07:35:15.297Z,5.23
2023-02-01T07:37:43.885Z,5.22
2023-02-01T07:40:14.002Z,5.23
2023-02-01T07:42:42.447Z,5.22
2023-02-01T07:45:21.028Z,5.24
2023-02-01T07:47:50.192Z,5.19
2023-02-01T07:50:20.349Z,5.16
2023-02-01T07:52:48.878Z,5.22
2023-02-01T07:55:17.454Z,5.24
2023-02-01T07:57:45.907Z,5.26
2023-02-01T08:00:33.342Z,5.25
2023-02-01T08:03:02.323Z,5.27
2023-02-01T08:05:32.344Z,5.28
2023-02-01T08:08:01.342Z,5.28
2023-02-01T08:10:29.742Z,5.26
2023-02-01T08:13:01.084Z,5.25
2023-02-01T08:15:29.673Z,5.24
2023-02-01T08:17:59.892Z,5.25
2023-02-01T08:20:28.683Z,5.22
2023-02-01T08:22:59.373Z,5.17
2023-02-01T08:25:28.843Z,5.24
2023-02-01T08:27:57.527Z,5.26
2023-02-01T08:30:26.253Z,5.28
2023-02-01T08:32:54.729Z,5.21
2023-02-01T08:35:27.882Z,5.29
2023-02-01T08:38:03.488Z,5.32
2023-02-01T08:40:31.955Z,5.32
2023-02-01T08:43:01.867Z,5.38
2023-02-01T08:45:31.734Z,5.40
2023-02-01T08:48:00.430Z,5.39
2023-02-01T08:50:29.084Z,5.41
2023-02-01T08:52:57.630Z,5.39
2023-02-01T08:55:29.981Z,5.41
2023-02-01T08:57:58.816Z,5.43
2023-02-01T09:00:27.357Z,5.46
2023-02-01T09:02:56.287Z,5.48
2023-02-01T09:05:35.050Z,5.49
2023-02-01T09:08:09.793Z,5.46
2023-02-01T09:10:40.131Z,5.45
2023-02-01T09:13:09.031Z,5.42
2023-02-01T09:15:37.675Z,5.38
2023-02-01T09:18:06.821Z,5.31
2023-02-01T09:20:35.387Z,5.25
2023-02-01T09:23:03.894Z,5.23
2023-02-01T09:25:32.445Z,5.15
2023-02-01T09:28:02.285Z,5.18
2023-02-01T09:30:31.472Z,5.27
2023-02-01T09:33:00.093Z,5.28
2023-02-01T09:35:28.622Z,5.29
2023-02-01T09:37:57.408Z,5.35
2023-02-01T09:40:26.403Z,5.38
2023-02-01T09:43:23.654Z,5.42
2023-02-01T09:46:02.181Z,5.45
2023-02-01T09:48:36.524Z,5.47
2023-02-01T09:51:09.366Z,5.47
2023-02-01T09:53:43.450Z,5.50
2023-02-01T09:56:17.054Z,5.49
2023-02-01T09:58:52.168Z,5.50
2023-02-01T10:01:23.472Z,5.46
2023-02-01T10:03:55.015Z,5.53
2023-02-01T10:06:33.202Z,5.52
2023-02-01T10:09:24.241Z,5.56
2023-02-01T10:12:19.725Z,5.56
2023-02-01T10:15:00.662Z,5.60
2023-02-01T10:17:47.698Z,5.61
2023-02-01T10:20:24.714Z,5.65
2023-02-01T10:23:26.935Z,5.64
2023-02-01T10:25:56.992Z,5.66
2023-02-01T10:28:27.543Z,5.63
2023-02-01T10:31:01.391Z,5.67
2023-02-01T10:33:36.231Z,5.70
2023-02-01T10:36:15.092Z,5.74
2023-02-01T10:38:44.195Z,5.77
2023-02-01T10:41:17.604Z,5.79
2023-02-01T10:43:48.820Z,5.80
2023-02-01T10:46:19.015Z,5.82
2023-02-01T10:48:48.461Z,5.83
2023-02-01T10:51:23.468Z,5.86
2023-02-01T10:53:55.730Z,5.81
2023-02-01T10:56:27.225Z,5.81
2023-02-01T10:59:03.501Z,5.91
2023-02-01T11:01:36.958Z,5.88
2023-02-01T11:04:06.975Z,5.86
2023-02-01T11:06:38.138Z,5.88
2023-02-01T11:09:14.854Z,5.87
2023-02-01T11:11:57.243Z,5.87
2023-02-01T11:14:34.910Z,5.84
2023-02-01T11:17:20.945Z,5.73
2023-02-01T11:19:50.070Z,5.72
2023-02-01T11:22:19.129Z,5.71
2023-02-01T11:24:48.961Z,5.73
2023-02-01T11:27:27.131Z,5.71
2023-02-01T11:30:01.224Z,5.70
2023-02-01T11:32:32.303Z,5.60
2023-02-01T11:35:04.887Z,5.49
2023-02-01T11:37:39.101Z,5.51
2023-02-01T11:40:28.249Z,5.49
2023-02-01T11:42:59.368Z,5.49
2023-02-01T11:45:30.360Z,5.50
2023-02-01T11:48:01.786Z,5.45
2023-02-01T11:50:41.980Z,5.50
2023-02-01T11:53:40.829Z,5.57
2023-02-01T11:56:20.484Z,5.51
2023-02-01T11:59:18.756Z,5.43
2023-02-01T12:02:05.601Z,5.45
2023-02-01T12:05:07.024Z,5.36
2023-02-01T12:07:55.324Z,5.30
2023-02-01T12:10:36.548Z,5.25
2023-02-01T12:13:24.445Z,5.21
2023-02-01T12:16:02.790Z,5.18
2023-02-01T12:18:53.389Z,5.15
2023-02-01T12:21:59.535Z,5.16
2023-02-01T12:24:57.358Z,5.20
2023-02-01T12:27:55.652Z,5.25
2023-02-01T12:30:58.833Z,5.25
2023-02-01T12:33:38.315Z,5.26
2023-02-01T12:36:16.661Z,5.30
2023-02-01T12:38:56.138Z,5.32
2023-02-01T12:41:55.417Z,5.36
2023-02-01T12:44:35.298Z,5.36
2023-02-01T12:47:09.098Z,5.37
2023-02-01T12:49:48.583Z,5.31
2023-02-01T12:52:22.700Z,5.22
2023-02-01T12:55:00.384Z,5.22
2023-02-01T12:57:35.147Z,5.20
2023-02-01T13:00:16.528Z,5.22
2023-02-01T13:02:52.378Z,5.23
2023-02-01T13:05:26.063Z,5.27
2023-02-01T13:08:01.391Z,5.27
2023-02-01T13:10:37.148Z,5.28
2023-02-01T13:13:13.994Z,5.30
2023-02-01T13:15:46.396Z,5.34
2023-02-01T13:18:20.902Z,5.39
2023-02-01T13:20:56.033Z,5.43
2023-02-01T13:23:30.962Z,5.40
2023-02-01T13:26:01.189Z,5.37
2023-02-01T13:28:35.152Z,5.38
2023-02-01T13:31:32.219Z,5.35
2023-02-01T13:34:39.212Z,5.33
2023-02-01T13:37:31.378Z,5.33
2023-02-01T13:40:26.455Z,5.35
2023-02-01T13:42:59.345Z,5.43
2023-02-01T13:45:31.332Z,5.48
2023-02-01T13:48:05.835Z,5.51
2023-02-01T13:50:38.764Z,5.50
2023-02-01T13:53:20.041Z,5.47
2023-02-01T13:55:54.113Z,5.45
2023-02-01T13:58:31.202Z,5.51
2023-02-01T14:01:35.361Z,5.52
2023-02-01T14:04:06.865Z,5.47
2023-02-01T14:06:47.209Z,5.58
2023-02-01T14:09:32.859Z,5.57
2023-02-01T14:12:51.227Z,5.71
2023-02-01T14:15:25.995Z,5.65
2023-02-01T14:17:55.176Z,5.61
2023-02-01T14:20:50.254Z,5.60
2023-02-01T14:23:34.863Z,5.57
2023-02-01T14:26:11.056Z,5.52
2023-02-01T14:28:45.342Z,5.45
2023-02-01T14:31:31.213Z,5.37
2023-02-01T14:34:03.454Z,5.27
2023-02-01T14:36:45.790Z,5.23
2023-02-01T14:39:31.662Z,5.21
2023-02-01T14:42:03.468Z,5.23
2023-02-01T14:44:38.245Z,5.24
2023-02-01T14:47:38.736Z,5.42
2023-02-01T14:50:29.779Z,5.42
2023-02-01T14:53:13.945Z,5.43
2023-02-01T14:55:44.496Z,5.36
2023-02-01T14:58:26.796Z,5.31
2023-02-01T15:00:59.602Z,5.30
2023-02-01T15:03:45.974Z,5.33
2023-02-01T15:06:34.473Z,5.31
2023-02-01T15:09:06.404Z,5.38
2023-02-01T15:11:34.846Z,5.40
2023-02-01T15:14:03.257Z,5.38
2023-02-01T15:16:31.738Z,5.36
2023-02-01T15:19:15.958Z,5.38
2023-02-01T15:21:49.124Z,5.31
2023-02-01T15:24:22.947Z,5.36
2023-02-01T15:26:52.008Z,5.35
2023-02-01T15:29:21.993Z,5.35
2023-02-01T15:31:52.861Z,5.34
2023-02-01T15:34:24.129Z,5.35
2023-02-01T15:37:03.450Z,5.31
2023-02-01T15:39:33.442Z,5.28
2023-02-01T15:42:11.659Z,5.30
2023-02-01T15:44:43.942Z,5.30
2023-02-01T15:47:18.865Z,5.24
2023-02-01T15:49:53.270Z,5.33
2023-02-01T15:52:29.152Z,5.29
2023-02-01T15:55:02.128Z,5.32
2023-02-01T15:57:32.970Z,5.32
2023-02-01T16:00:04.544Z,5.25
2023-02-01T16:02:38.856Z,5.27
2023-02-01T16:05:31.375Z,5.31
2023-02-01T16:08:05.596Z,5.29
2023-02-01T16:10:40.516Z,5.28
2023-02-01T16:13:09.524Z,5.30
2023-02-01T16:15:38.589Z,5.27
2023-02-01T16:18:09.354Z,5.26
2023-02-01T16:20:41.324Z,5.23
2023-02-01T16:23:10.848Z,5.21
2023-02-01T16:25:39.754Z,5.20
2023-02-01T16:28:08.853Z,5.12
2023-02-01T16:30:38.069Z,5.05
2023-02-01T16:33:08.225Z,5.00
2023-02-01T16:35:40.339Z,4.96
2023-02-01T16:38:14.462Z,4.93
2023-02-01T16:40:43.451Z,4.91
2023-02-01T16:43:15.965Z,4.90
2023-02-01T16:45:45.038Z,4.85
2023-02-01T16:48:21.794Z,4.81
2023-02-01T16:50:55.212Z,4.81
2023-02-01T16:53:25.419Z,4.79
2023-02-01T16:55:54.031Z,4.77
2023-02-01T16:58:23.423Z,4.74
2023-02-01T17:00:53.512Z,4.74
2023-02-01T17:03:22.942Z,4.67
2023-02-01T17:05:55.780Z,4.65
2023-02-01T17:08:34.482Z,4.69
2023-02-01T17:11:04.079Z,4.65
2023-02-01T17:13:32.853Z,4.66
2023-02-01T17:16:03.601Z,4.72
2023-02-01T17:18:35.255Z,4.64
2023-02-01T17:21:07.981Z,4.66
2023-02-01T17:23:36.747Z,4.65
2023-02-01T17:26:05.427Z,4.69
2023-02-01T17:28:34.020Z,4.63
2023-02-01T17:31:04.950Z,4.71
2023-02-01T17:33:36.687Z,4.62
2023-02-01T17:36:08.794Z,4.65
2023-02-01T17:38:37.277Z,4.67
2023-02-01T17:41:06.220Z,4.66
2023-02-01T17:43:35.981Z,4.58
2023-02-01T17:46:07.870Z,4.60
2023-02-01T17:48:36.338Z,4.59
2023-02-01T17:51:08.204Z,4.60
2023-02-01T17:53:36.806Z,4.60
2023-02-01T17:56:05.389Z,4.61
2023-02-01T17:58:34.666Z,4.61
2023-02-01T18:01:03.211Z,4.64
2023-02-01T18:03:35.891Z,4.67
2023-02-01T18:06:08.638Z,4.64
2023-02-01T18:08:37.148Z,4.72
2023-02-01T18:11:11.703Z,4.74
2023-02-01T18:13:40.276Z,4.76
2023-02-01T18:16:17.783Z,4.81
2023-02-01T18:18:47.116Z,4.82
2023-02-01T18:21:18.838Z,4.94
2023-02-01T18:23:47.668Z,5.05
2023-02-01T18:26:17.724Z,5.09
2023-02-01T18:28:46.768Z,5.07
2023-02-01T18:31:31.945Z,5.10
2023-02-01T18:34:01.675Z,5.07
2023-02-01T18:36:31.789Z,5.13
2023-02-01T18:39:00.193Z,5.13
2023-02-01T18:41:30.329Z,5.15
2023-02-01T18:43:59.130Z,5.22
2023-02-01T18:46:29.299Z,5.13
2023-02-01T18:48:58.039Z,5.15
2023-02-01T18:51:26.473Z,5.11
2023-02-01T18:53:56.489Z,5.07
2023-02-01T18:56:25.131Z,5.16
2023-02-01T18:58:53.905Z,5.15
2023-02-01T19:01:23.588Z,5.10
2023-02-01T19:03:54.144Z,5.08
2023-02-01T19:06:36.365Z,5.11
2023-02-01T19:09:06.296Z,5.11
2023-02-01T19:11:34.865Z,4.95
2023-02-01T19:14:03.601Z,5.04
2023-02-01T19:16:32.047Z,4.97
2023-02-01T19:19:00.506Z,4.94
2023-02-01T19:21:29.979Z,5.02
2023-02-01T19:23:58.876Z,5.03
2023-02-01T19:26:28.905Z,5.04
2023-02-01T19:29:00.132Z,5.03
2023-02-01T19:31:28.788Z,5.00
2023-02-01T19:34:00.265Z,5.07
2023-02-01T19:36:29.257Z,5.05
2023-02-01T19:38:58.094Z,5.08
2023-02-01T19:41:26.701Z,5.11
2023-02-01T19:43:59.472Z,5.04
2023-02-01T19:46:28.511Z,5.16
2023-02-01T19:48:57.681Z,5.21
2023-02-01T19:51:26.537Z,5.16
2023-02-01T19:53:55.831Z,5.26
2023-02-01T19:56:24.371Z,5.20
2023-02-01T19:58:55.575Z,5.24
2023-02-01T20:01:25.684Z,5.22
2023-02-01T20:03:56.514Z,5.21
2023-02-01T20:06:25.692Z,5.23
2023-02-01T20:09:03.978Z,5.18
2023-02-01T20:11:32.967Z,5.04
2023-02-01T20:14:02.346Z,4.84
2023-02-01T20:16:32.536Z,4.78
2023-02-01T20:19:01.132Z,4.73
2023-02-01T20:21:29.548Z,4.68
2023-02-01T20:23:57.990Z,4.55
2023-02-01T20:26:27.561Z,4.50
2023-02-01T20:28:56.283Z,4.40
2023-02-01T20:31:29.393Z,4.27
2023-02-01T20:34:00.594Z,4.16
2023-02-01T20:36:30.832Z,3.99
2023-02-01T20:38:59.802Z,3.86
2023-02-01T20:41:29.023Z,3.74
2023-02-01T20:43:57.613Z,3.60
2023-02-01T20:46:27.122Z,3.52
2023-02-01T20:48:55.626Z,3.32
2023-02-01T20:51:25.468Z,3.33
2023-02-01T20:53:55.105Z,3.34
2023-02-01T20:56:24.082Z,3.28
2023-02-01T20:58:52.841Z,3.31
2023-02-01T21:01:21.258Z,3.15
2023-02-01T21:03:49.954Z,3.16
2023-02-01T21:06:18.385Z,3.14
2023-02-01T21:08:48.479Z,3.14
2023-02-01T21:11:17.317Z,3.12
2023-02-01T21:13:50.875Z,3.07
2023-02-01T21:16:23.234Z,3.02
2023-02-01T21:18:52.305Z,3.00
2023-02-01T21:21:21.550Z,3.07
2023-02-01T21:23:53.068Z,3.01
2023-02-01T21:26:23.575Z,3.03
2023-02-01T21:28:53.872Z,3.04
2023-02-01T21:31:25.947Z,3.04
2023-02-01T21:33:54.741Z,3.03
2023-02-01T21:36:25.418Z,3.07
2023-02-01T21:39:03.731Z,3.08
2023-02-01T21:41:52.078Z,3.06
2023-02-01T21:44:20.747Z,3.09
2023-02-01T21:46:49.139Z,3.06
2023-02-01T21:49:17.687Z,3.05
2023-02-01T21:51:46.187Z,3.10
2023-02-01T21:54:17.585Z,3.11
2023-02-01T21:56:46.467Z,3.10
2023-02-01T21:59:14.965Z,3.11
2023-02-01T22:01:44.465Z,3.11
2023-02-01T22:04:15.215Z,3.01
2023-02-01T22:06:47.059Z,3.09
2023-02-01T22:09:21.398Z,3.13
2023-02-01T22:11:50.342Z,3.13
2023-02-01T22:14:19.475Z,3.18
2023-02-01T22:16:48.565Z,3.18
2023-02-01T22:19:17.222Z,3.19
2023-02-01T22:21:47.536Z,3.21
2023-02-01T22:24:18.585Z,3.22
2023-02-01T22:26:49.472Z,3.19
2023-02-01T22:29:19.495Z,3.25
2023-02-01T22:31:48.763Z,3.26
2023-02-01T22:34:17.722Z,3.29
2023-02-01T22:36:49.626Z,3.33
2023-02-01T22:39:18.455Z,3.34
2023-02-01T22:41:48.322Z,3.38
2023-02-01T22:44:16.719Z,3.38
2023-02-01T22:46:45.153Z,3.41
2023-02-01T22:49:13.817Z,3.46
2023-02-01T22:51:42.422Z,3.48
2023-02-01T22:54:18.029Z,3.54
2023-02-01T22:56:47.813Z,3.58
2023-02-01T22:59:16.532Z,3.58
2023-02-01T23:01:45.937Z,3.64
2023-02-01T23:04:16.043Z,3.66
2023-02-01T23:06:44.670Z,3.67
2023-02-01T23:09:17.255Z,3.71
2023-02-01T23:11:46.058Z,3.68
2023-02-01T23:14:16.796Z,3.74
2023-02-01T23:16:46.568Z,3.79
2023-02-01T23:19:15.585Z,3.78
2023-02-01T23:21:44.252Z,3.79
2023-02-01T23:24:12.708Z,3.78
2023-02-01T23:26:42.736Z,3.86
2023-02-01T23:29:17.472Z,3.87
2023-02-01T23:31:47.450Z,3.89
2023-02-01T23:34:16.146Z,3.90
2023-02-01T23:36:44.630Z,3.91
2023-02-01T23:39:13.093Z,3.94
2023-02-01T23:41:41.534Z,3.95
2023-02-01T23:44:10.355Z,3.95
2023-02-01T23:46:40.449Z,4.00
2023-02-01T23:49:11.734Z,4.02
2023-02-01T23:51:40.325Z,3.99
2023-02-01T23:54:09.810Z,4.03
2023-02-01T23:56:40.010Z,3.99
2023-02-01T23:59:11.433Z,4.01
